createdAt,value
2018-12-06T00:02:23.127Z,53.82
2018-12-06T00:04:49.704Z,54.99
2018-12-06T00:07:16.304Z,54.16
2018-12-06T00:09:42.866Z,54.18
2018-12-06T00:12:09.427Z,54.76
2018-12-06T00:14:36.012Z,54.04
2018-12-06T00:17:02.879Z,54.16
2018-12-06T00:19:29.480Z,54.68
2018-12-06T00:21:56.045Z,54.60
2018-12-06T00:24:22.617Z,54.44
2018-12-06T00:26:49.197Z,54.39
2018-12-06T00:29:15.782Z,53.86
2018-12-06T00:31:42.365Z,54.53
2018-12-06T00:34:08.927Z,54.08
2018-12-06T00:36:35.504Z,54.28
2018-12-06T00:39:02.082Z,54.84
2018-12-06T00:41:28.660Z,54.55
2018-12-06T00:43:55.229Z,53.87
2018-12-06T00:46:21.799Z,54.44
2018-12-06T00:48:48.372Z,53.80
2018-12-06T00:51:14.983Z,53.84
2018-12-06T00:53:41.546Z,53.96
2018-12-06T00:56:08.111Z,53.99
2018-12-06T00:58:34.690Z,53.92
2018-12-06T01:01:01.246Z,54.38
2018-12-06T01:03:27.814Z,54.45
2018-12-06T01:05:54.386Z,54.22
2018-12-06T01:08:20.957Z,53.89
2018-12-06T01:10:47.541Z,54.55
2018-12-06T01:13:14.113Z,53.74
2018-12-06T01:15:40.687Z,54.28
2018-12-06T01:18:07.247Z,54.35
2018-12-06T01:20:33.813Z,54.30
2018-12-06T01:23:00.379Z,54.17
2018-12-06T01:25:26.981Z,54.06
2018-12-06T01:27:53.564Z,54.21
2018-12-06T01:30:20.136Z,54.55
2018-12-06T01:32:46.701Z,54.36
2018-12-06T01:35:13.271Z,54.29
2018-12-06T01:37:39.829Z,53.62
2018-12-06T01:40:06.420Z,54.30
2018-12-06T01:42:32.984Z,54.04
2018-12-06T01:44:59.547Z,53.53
2018-12-06T01:47:26.149Z,54.29
2018-12-06T01:49:52.730Z,53.56
2018-12-06T01:52:19.297Z,53.62
2018-12-06T01:54:45.863Z,53.64
2018-12-06T01:57:12.427Z,54.35
2018-12-06T01:59:39.018Z,54.36
2018-12-06T02:02:05.584Z,53.97
2018-12-06T02:04:32.196Z,53.77
2018-12-06T02:06:58.768Z,53.83
2018-12-06T02:09:25.343Z,53.56
2018-12-06T02:11:51.911Z,53.64
2018-12-06T02:14:18.480Z,53.94
2018-12-06T02:16:45.075Z,53.49
2018-12-06T02:19:11.650Z,54.12
2018-12-06T02:21:38.228Z,53.65
2018-12-06T02:24:04.792Z,54.38
2018-12-06T02:26:31.373Z,53.68
2018-12-06T02:28:57.957Z,53.89
2018-12-06T02:31:24.524Z,53.60
2018-12-06T02:33:51.099Z,53.66
2018-12-06T02:36:17.679Z,53.19
2018-12-06T02:38:44.265Z,53.46
2018-12-06T02:41:10.831Z,53.52
2018-12-06T02:43:37.413Z,53.53
2018-12-06T02:46:03.976Z,54.08
2018-12-06T02:48:30.568Z,53.53
2018-12-06T02:50:57.135Z,53.44
2018-12-06T02:53:23.703Z,53.38
2018-12-06T02:55:50.278Z,54.10
2018-12-06T02:58:16.863Z,53.51
2018-12-06T03:00:43.567Z,54.20
2018-12-06T03:03:10.144Z,53.33
2018-12-06T03:05:36.715Z,54.13
2018-12-06T03:08:03.293Z,53.60
2018-12-06T03:10:29.865Z,54.06
2018-12-06T03:12:56.442Z,54.22
2018-12-06T03:15:23.017Z,53.41
2018-12-06T03:17:49.591Z,53.63
2018-12-06T03:20:16.157Z,53.10
2018-12-06T03:22:42.756Z,53.41
2018-12-06T03:25:09.329Z,53.82
2018-12-06T03:27:35.887Z,53.80
2018-12-06T03:30:02.476Z,53.48
2018-12-06T03:32:29.149Z,53.80
2018-12-06T03:34:55.733Z,53.43
2018-12-06T03:37:22.299Z,53.65
2018-12-06T03:39:48.900Z,54.05
2018-12-06T03:42:15.464Z,53.99
2018-12-06T03:44:42.034Z,53.87
2018-12-06T03:47:08.596Z,54.07
2018-12-06T03:49:35.163Z,53.95
2018-12-06T03:52:01.742Z,54.22
2018-12-06T03:54:28.309Z,53.39
2018-12-06T03:56:54.910Z,53.86
2018-12-06T03:59:21.476Z,53.53
2018-12-06T04:01:48.034Z,54.06
2018-12-06T04:04:14.590Z,53.97
2018-12-06T04:06:41.160Z,53.62
2018-12-06T04:09:07.737Z,54.17
2018-12-06T04:11:34.326Z,53.60
2018-12-06T04:14:00.921Z,54.18
2018-12-06T04:16:27.498Z,54.14
2018-12-06T04:18:54.181Z,53.31
2018-12-06T04:21:20.772Z,53.72
2018-12-06T04:23:50.376Z,53.04
2018-12-06T04:26:17.008Z,53.92
2018-12-06T04:28:43.584Z,54.00
2018-12-06T04:31:10.169Z,53.18
2018-12-06T04:33:36.879Z,53.62
2018-12-06T04:36:03.470Z,53.94
2018-12-06T04:38:30.068Z,53.27
2018-12-06T04:40:56.784Z,53.94
2018-12-06T04:43:23.367Z,53.35
2018-12-06T04:45:50.120Z,53.85
2018-12-06T04:48:21.928Z,53.97
2018-12-06T04:50:45.568Z,53.38
2018-12-06T04:53:12.152Z,54.02
2018-12-06T04:55:38.909Z,54.00
2018-12-06T04:58:05.634Z,54.13
2018-12-06T05:00:32.246Z,53.49
2018-12-06T05:02:58.819Z,53.40
2018-12-06T05:05:25.391Z,53.31
2018-12-06T05:07:51.960Z,54.06
2018-12-06T05:10:18.536Z,54.74
2018-12-06T05:12:45.107Z,53.29
2018-12-06T05:15:11.683Z,54.08
2018-12-06T05:17:38.378Z,53.50
2018-12-06T05:20:04.948Z,54.04
2018-12-06T05:22:31.520Z,53.59
2018-12-06T05:24:58.098Z,54.16
2018-12-06T05:27:24.669Z,53.46
2018-12-06T05:29:56.797Z,53.96
2018-12-06T05:32:23.392Z,53.72
2018-12-06T05:34:49.981Z,53.16
2018-12-06T05:37:16.546Z,54.25
2018-12-06T05:39:43.120Z,54.21
2018-12-06T05:42:09.692Z,53.55
2018-12-06T05:44:36.279Z,53.82
2018-12-06T05:47:02.848Z,53.62
2018-12-06T05:49:29.452Z,54.15
2018-12-06T05:51:56.023Z,53.85
2018-12-06T05:54:22.597Z,54.46
2018-12-06T05:56:49.203Z,53.71
2018-12-06T05:59:15.776Z,54.55
2018-12-06T06:01:42.346Z,54.32
2018-12-06T06:04:08.919Z,53.85
2018-12-06T06:06:35.486Z,54.70
2018-12-06T06:09:02.089Z,54.14
2018-12-06T06:11:28.660Z,53.92
2018-12-06T06:13:55.240Z,53.79
2018-12-06T06:16:21.803Z,53.94
2018-12-06T06:18:48.377Z,54.70
2018-12-06T06:21:14.976Z,54.18
2018-12-06T06:23:41.541Z,54.46
2018-12-06T06:26:08.135Z,54.21
2018-12-06T06:28:34.712Z,54.41
2018-12-06T06:31:01.344Z,54.01
2018-12-06T06:33:28.012Z,54.05
2018-12-06T06:35:54.597Z,54.31
2018-12-06T06:38:21.167Z,54.11
2018-12-06T06:40:47.741Z,53.81
2018-12-06T06:43:14.325Z,54.35
2018-12-06T06:45:40.933Z,54.76
2018-12-06T06:48:07.510Z,54.05
2018-12-06T06:50:34.097Z,54.53
2018-12-06T06:53:00.676Z,54.76
2018-12-06T06:55:27.257Z,54.75
2018-12-06T06:57:53.850Z,54.62
2018-12-06T07:00:20.418Z,54.00
2018-12-06T07:02:46.979Z,54.49
2018-12-06T07:05:13.562Z,54.57
2018-12-06T07:07:40.146Z,55.40
2018-12-06T07:10:06.709Z,56.75
2018-12-06T07:12:33.298Z,56.04
2018-12-06T07:14:59.869Z,55.81
2018-12-06T07:17:26.439Z,55.17
2018-12-06T07:19:53.005Z,53.93
2018-12-06T07:22:19.575Z,52.20
2018-12-06T07:24:46.143Z,45.42
2018-12-06T07:27:12.727Z,46.06
2018-12-06T07:32:12.351Z,44.25
2018-12-06T07:34:38.939Z,46.24
2018-12-06T07:37:05.499Z,48.16
2018-12-06T07:39:32.073Z,47.86
2018-12-06T07:41:58.644Z,46.02
2018-12-06T07:44:25.220Z,46.56
2018-12-06T07:46:51.787Z,47.30
2018-12-06T07:49:18.356Z,48.92
2018-12-06T07:51:44.948Z,49.88
2018-12-06T07:54:11.532Z,49.56
2018-12-06T07:56:38.111Z,50.16
2018-12-06T07:59:04.675Z,50.45
2018-12-06T08:01:31.249Z,49.57
2018-12-06T08:03:57.828Z,50.61
2018-12-06T08:06:24.393Z,50.65
2018-12-06T08:08:50.958Z,50.55
2018-12-06T08:11:17.715Z,50.64
2018-12-06T08:13:44.302Z,50.92
2018-12-06T08:16:10.868Z,50.47
2018-12-06T08:18:37.439Z,51.28
2018-12-06T08:21:04.007Z,50.54
2018-12-06T08:23:31.634Z,50.70
2018-12-06T08:25:58.200Z,51.02
2018-12-06T08:28:24.906Z,51.60
2018-12-06T08:30:51.499Z,51.30
2018-12-06T08:33:18.076Z,51.13
2018-12-06T08:35:44.647Z,51.61
2018-12-06T08:38:12.324Z,51.93
2018-12-06T08:40:39.220Z,51.84
2018-12-06T08:43:05.790Z,51.46
2018-12-06T08:45:32.351Z,51.05
2018-12-06T08:47:58.916Z,52.15
2018-12-06T08:50:25.482Z,51.54
2018-12-06T08:52:52.068Z,52.16
2018-12-06T08:55:18.644Z,52.11
2018-12-06T08:57:45.213Z,52.35
2018-12-06T09:00:11.776Z,51.79
2018-12-06T09:02:38.347Z,52.21
2018-12-06T09:05:04.937Z,51.75
2018-12-06T09:07:31.502Z,52.33
2018-12-06T09:09:58.073Z,52.30
2018-12-06T09:12:24.649Z,52.51
2018-12-06T09:14:51.223Z,52.38
2018-12-06T09:17:17.791Z,52.51
2018-12-06T09:19:44.357Z,52.08
2018-12-06T09:22:10.918Z,52.47
2018-12-06T09:24:37.478Z,52.14
2018-12-06T09:27:04.056Z,52.38
2018-12-06T09:29:30.630Z,52.09
2018-12-06T09:31:57.203Z,51.53
2018-12-06T09:34:23.785Z,52.53
2018-12-06T09:36:50.359Z,52.67
2018-12-06T09:39:16.927Z,52.55
2018-12-06T09:41:43.530Z,52.12
2018-12-06T09:44:10.119Z,52.76
2018-12-06T09:46:36.686Z,52.77
2018-12-06T09:49:03.260Z,52.79
2018-12-06T09:51:29.828Z,52.63
2018-12-06T09:53:56.407Z,52.60
2018-12-06T09:56:22.972Z,52.47
2018-12-06T09:58:49.543Z,52.79
2018-12-06T10:01:16.141Z,51.78
2018-12-06T10:03:42.707Z,52.77
2018-12-06T10:06:09.284Z,52.83
2018-12-06T10:08:35.872Z,52.79
2018-12-06T10:11:02.450Z,52.56
2018-12-06T10:13:29.021Z,52.53
2018-12-06T10:15:55.593Z,52.56
2018-12-06T10:18:22.201Z,52.74
2018-12-06T10:20:48.771Z,52.73
2018-12-06T10:23:15.353Z,52.79
2018-12-06T10:25:41.928Z,52.91
2018-12-06T10:28:08.496Z,52.33
2018-12-06T10:30:35.059Z,52.61
2018-12-06T10:33:01.653Z,52.33
2018-12-06T10:35:28.223Z,52.73
2018-12-06T10:37:54.796Z,53.07
2018-12-06T10:40:21.390Z,52.48
2018-12-06T10:42:47.972Z,52.86
2018-12-06T10:45:14.538Z,52.98
2018-12-06T10:47:41.129Z,52.23
2018-12-06T10:50:07.706Z,52.45
2018-12-06T10:52:34.272Z,52.64
2018-12-06T10:55:00.843Z,52.44
2018-12-06T10:57:27.420Z,52.47
2018-12-06T10:59:53.991Z,52.50
2018-12-06T11:02:26.310Z,52.34
2018-12-06T11:04:52.900Z,52.95
2018-12-06T11:07:23.309Z,52.29
2018-12-06T11:09:49.876Z,52.67
2018-12-06T11:12:16.443Z,52.59
2018-12-06T11:14:43.020Z,52.45
2018-12-06T11:17:09.606Z,51.79
2018-12-06T11:19:36.167Z,52.49
2018-12-06T11:22:02.776Z,52.63
2018-12-06T11:24:29.338Z,52.63
2018-12-06T11:27:25.959Z,53.03
2018-12-06T11:29:52.549Z,52.55
2018-12-06T11:32:19.144Z,52.43
2018-12-06T11:34:45.748Z,53.06
2018-12-06T11:37:12.323Z,52.60
2018-12-06T11:39:38.930Z,52.54
2018-12-06T11:42:05.520Z,53.49
2018-12-06T11:44:32.127Z,52.72
2018-12-06T11:46:58.753Z,52.79
2018-12-06T11:49:25.382Z,52.54
2018-12-06T11:51:52.012Z,52.68
2018-12-06T11:54:18.604Z,52.52
2018-12-06T11:56:45.199Z,52.50
2018-12-06T11:59:11.788Z,53.14
2018-12-06T12:01:38.392Z,52.48
2018-12-06T12:04:04.995Z,53.19
2018-12-06T12:06:31.627Z,52.75
2018-12-06T12:08:58.257Z,53.53
2018-12-06T12:11:24.840Z,53.50
2018-12-06T12:13:51.526Z,53.63
2018-12-06T12:16:18.145Z,53.27
2018-12-06T12:18:44.747Z,53.01
2018-12-06T12:21:11.439Z,53.76
2018-12-06T12:23:38.061Z,53.51
2018-12-06T12:26:04.663Z,53.43
2018-12-06T12:28:31.544Z,53.68
2018-12-06T12:30:58.190Z,53.52
2018-12-06T12:33:25.116Z,53.67
2018-12-06T12:35:51.756Z,53.37
2018-12-06T12:38:18.356Z,53.55
2018-12-06T12:40:45.056Z,53.66
2018-12-06T12:43:11.797Z,53.44
2018-12-06T12:45:38.415Z,52.83
2018-12-06T12:48:05.037Z,53.19
2018-12-06T12:50:31.671Z,52.96
2018-12-06T12:52:58.350Z,52.92
2018-12-06T12:55:24.934Z,53.60
2018-12-06T12:57:51.626Z,53.44
2018-12-06T13:00:18.225Z,53.59
2018-12-06T13:02:44.903Z,53.11
2018-12-06T13:05:11.488Z,53.49
2018-12-06T13:07:38.119Z,52.94
2018-12-06T13:10:04.729Z,52.82
2018-12-06T13:12:31.352Z,53.72
2018-12-06T13:14:57.937Z,53.27
2018-12-06T13:17:24.629Z,53.33
2018-12-06T13:19:51.223Z,53.61
2018-12-06T13:22:17.843Z,53.03
2018-12-06T13:24:44.476Z,53.58
2018-12-06T13:27:11.096Z,53.44
2018-12-06T13:29:37.677Z,52.52
2018-12-06T13:32:04.391Z,52.85
2018-12-06T13:34:31.001Z,53.69
2018-12-06T13:36:57.655Z,53.76
2018-12-06T13:39:24.319Z,53.40
2018-12-06T13:41:50.946Z,53.94
2018-12-06T13:44:17.689Z,53.52
2018-12-06T13:46:44.336Z,53.88
2018-12-06T13:49:11.087Z,53.15
2018-12-06T13:51:37.716Z,53.30
2018-12-06T13:54:04.328Z,53.43
2018-12-06T13:56:30.900Z,53.27
2018-12-06T13:58:57.551Z,53.71
2018-12-06T14:01:24.318Z,53.42
2018-12-06T14:03:51.103Z,53.64
2018-12-06T14:06:17.703Z,53.26
2018-12-06T14:08:44.428Z,53.50
2018-12-06T14:11:11.035Z,54.06
2018-12-06T14:13:37.647Z,53.55
2018-12-06T14:16:10.228Z,53.50
2018-12-06T14:18:33.081Z,53.18
2018-12-06T14:20:59.654Z,53.63
2018-12-06T14:23:26.367Z,53.52
2018-12-06T14:25:52.980Z,54.11
2018-12-06T14:28:19.605Z,54.16
2018-12-06T14:30:46.222Z,53.52
2018-12-06T14:33:12.886Z,54.20
2018-12-06T14:35:39.690Z,53.51
2018-12-06T14:38:06.406Z,53.70
2018-12-06T14:40:33.304Z,53.63
2018-12-06T14:43:00.760Z,54.38
2018-12-06T14:45:27.588Z,53.72
2018-12-06T14:47:54.235Z,53.67
2018-12-06T14:50:20.829Z,53.54
2018-12-06T14:52:47.472Z,53.74
2018-12-06T14:55:14.184Z,53.53
2018-12-06T14:57:40.804Z,53.70
2018-12-06T15:00:07.442Z,54.23
2018-12-06T15:02:34.018Z,54.47
2018-12-06T15:05:00.623Z,54.45
2018-12-06T15:07:27.262Z,53.72
2018-12-06T15:09:54.013Z,54.19
2018-12-06T15:12:21.373Z,53.83
2018-12-06T15:14:48.022Z,54.33
2018-12-06T15:17:14.635Z,54.37
2018-12-06T15:19:41.247Z,54.41
2018-12-06T15:22:07.979Z,53.68
2018-12-06T15:24:34.565Z,53.66
2018-12-06T15:27:01.219Z,53.74
2018-12-06T15:29:27.849Z,54.48
2018-12-06T15:31:54.486Z,54.55
2018-12-06T15:34:21.095Z,54.25
2018-12-06T15:36:47.670Z,54.08
2018-12-06T15:39:14.300Z,54.00
2018-12-06T15:41:40.903Z,54.71
2018-12-06T15:44:07.474Z,54.68
2018-12-06T15:46:34.111Z,54.60
2018-12-06T15:49:00.679Z,54.55
2018-12-06T15:51:27.353Z,53.95
2018-12-06T15:53:53.935Z,54.09
2018-12-06T15:56:20.562Z,54.32
2018-12-06T15:58:47.237Z,54.65
2018-12-06T16:01:13.845Z,54.55
2018-12-06T16:03:40.475Z,54.43
2018-12-06T16:06:07.106Z,55.19
2018-12-06T16:08:33.745Z,55.19
2018-12-06T16:11:00.357Z,54.59
2018-12-06T16:13:27.002Z,55.07
2018-12-06T16:15:53.606Z,54.53
2018-12-06T16:18:20.488Z,55.23
2018-12-06T16:20:47.121Z,54.36
2018-12-06T16:23:13.725Z,54.56
2018-12-06T16:25:40.325Z,55.26
2018-12-06T16:28:06.970Z,55.38
2018-12-06T16:30:33.640Z,54.83
2018-12-06T16:33:00.259Z,54.74
2018-12-06T16:35:26.879Z,55.08
2018-12-06T16:37:53.528Z,54.68
2018-12-06T16:40:20.161Z,55.49
2018-12-06T16:42:46.806Z,54.73
2018-12-06T16:45:13.432Z,55.25
2018-12-06T16:47:40.031Z,55.55
2018-12-06T16:50:06.608Z,55.40
2018-12-06T16:52:33.248Z,54.75
2018-12-06T16:54:59.850Z,55.50
2018-12-06T16:57:26.474Z,55.59
2018-12-06T16:59:53.061Z,55.21
2018-12-06T17:02:19.670Z,55.50
2018-12-06T17:04:46.265Z,55.14
2018-12-06T17:07:12.851Z,55.39
2018-12-06T17:09:39.445Z,54.52
2018-12-06T17:12:06.082Z,55.33
2018-12-06T17:14:32.683Z,55.32
2018-12-06T17:16:59.292Z,54.93
2018-12-06T17:19:25.909Z,55.43
2018-12-06T17:21:52.540Z,55.26
2018-12-06T17:24:19.201Z,55.41
2018-12-06T17:26:45.836Z,55.40
2018-12-06T17:29:12.471Z,54.82
2018-12-06T17:31:39.105Z,54.95
2018-12-06T17:34:05.688Z,54.86
2018-12-06T17:36:32.296Z,55.02
2018-12-06T17:38:58.913Z,55.13
2018-12-06T17:41:25.558Z,55.38
2018-12-06T17:43:52.159Z,55.84
2018-12-06T17:46:18.802Z,55.29
2018-12-06T17:48:45.448Z,56.30
2018-12-06T17:51:12.041Z,56.18
2018-12-06T17:53:38.666Z,55.44
2018-12-06T17:56:05.296Z,55.54
2018-12-06T17:58:31.905Z,55.81
2018-12-06T18:00:58.533Z,55.84
2018-12-06T18:03:25.133Z,55.72
2018-12-06T18:05:51.759Z,55.38
2018-12-06T18:08:18.362Z,55.74
2018-12-06T18:10:45.008Z,55.95
2018-12-06T18:13:11.572Z,54.96
2018-12-06T18:15:38.305Z,54.96
2018-12-06T18:18:04.944Z,55.75
2018-12-06T18:20:31.569Z,55.53
2018-12-06T18:22:58.168Z,54.81
2018-12-06T18:25:24.869Z,55.69
2018-12-06T18:27:51.513Z,55.64
2018-12-06T18:30:18.143Z,54.91
2018-12-06T18:32:44.870Z,55.58
2018-12-06T18:35:11.502Z,55.70
2018-12-06T18:37:38.082Z,54.79
2018-12-06T18:40:04.712Z,54.70
2018-12-06T18:42:31.325Z,54.75
2018-12-06T18:44:57.946Z,55.63
2018-12-06T18:47:24.591Z,55.17
2018-12-06T18:49:51.164Z,55.45
2018-12-06T18:52:17.841Z,55.55
2018-12-06T18:54:44.402Z,55.67
2018-12-06T18:57:10.988Z,55.60
2018-12-06T18:59:37.641Z,55.55
2018-12-06T19:02:04.432Z,55.05
2018-12-06T19:04:31.035Z,55.24
2018-12-06T19:06:57.634Z,55.42
2018-12-06T19:09:24.191Z,54.92
2018-12-06T19:11:50.747Z,55.60
2018-12-06T19:14:21.884Z,55.51
2018-12-06T19:16:45.992Z,55.57
2018-12-06T19:19:12.630Z,55.63
2018-12-06T19:21:39.232Z,55.30
2018-12-06T19:24:05.848Z,54.94
2018-12-06T19:26:32.475Z,55.37
2018-12-06T19:28:59.097Z,54.92
2018-12-06T19:31:25.687Z,54.81
2018-12-06T19:33:52.300Z,54.81
2018-12-06T19:36:18.888Z,54.83
2018-12-06T19:38:45.468Z,55.49
2018-12-06T19:41:12.043Z,54.47
2018-12-06T19:43:38.596Z,55.36
2018-12-06T19:46:05.222Z,55.55
2018-12-06T19:48:31.783Z,55.97
2018-12-06T19:50:58.347Z,56.28
2018-12-06T19:53:24.905Z,56.42
2018-12-06T19:55:51.451Z,56.56
2018-12-06T19:58:18.040Z,56.27
2018-12-06T20:00:44.639Z,56.48
2018-12-06T20:03:11.203Z,55.55
2018-12-06T20:05:37.774Z,55.50
2018-12-06T20:08:04.379Z,55.66
2018-12-06T20:10:30.998Z,56.64
2018-12-06T20:12:57.561Z,56.75
2018-12-06T20:15:24.156Z,56.74
2018-12-06T20:17:50.731Z,56.11
2018-12-06T20:20:23.591Z,56.03
2018-12-06T20:22:45.946Z,55.92
2018-12-06T20:25:12.584Z,56.02
2018-12-06T20:27:39.181Z,56.46
2018-12-06T20:30:05.812Z,56.25
2018-12-06T20:32:32.410Z,55.69
2018-12-06T20:34:59.048Z,55.57
2018-12-06T20:37:25.640Z,55.70
2018-12-06T20:39:52.237Z,55.38
2018-12-06T20:42:18.812Z,55.40
2018-12-06T20:44:45.400Z,55.87
2018-12-06T20:47:14.037Z,55.44
2018-12-06T20:49:40.624Z,55.26
2018-12-06T20:52:07.218Z,56.24
2018-12-06T20:54:33.836Z,55.70
2018-12-06T20:57:00.418Z,55.91
2018-12-06T20:59:27.052Z,56.11
2018-12-06T21:01:54.904Z,56.00
2018-12-06T21:04:21.712Z,55.18
2018-12-06T21:06:48.324Z,55.14
2018-12-06T21:09:14.932Z,55.90
2018-12-06T21:11:41.561Z,55.71
2018-12-06T21:14:08.161Z,55.13
2018-12-06T21:16:34.782Z,55.09
2018-12-06T21:19:01.399Z,55.45
2018-12-06T21:21:28.004Z,55.73
2018-12-06T21:23:54.623Z,55.74
2018-12-06T21:26:21.225Z,55.39
2018-12-06T21:28:47.883Z,55.10
2018-12-06T21:31:14.490Z,55.09
2018-12-06T21:33:41.115Z,54.99
2018-12-06T21:36:07.728Z,55.55
2018-12-06T21:38:34.306Z,55.61
2018-12-06T21:41:00.970Z,54.90
2018-12-06T21:43:27.544Z,55.07
2018-12-06T21:45:54.153Z,54.98
2018-12-06T21:48:20.751Z,55.26
2018-12-06T21:50:47.369Z,54.92
2018-12-06T21:53:13.983Z,54.96
2018-12-06T21:55:40.576Z,54.86
2018-12-06T21:58:07.200Z,55.38
2018-12-06T22:00:33.831Z,55.19
2018-12-06T22:03:00.392Z,54.95
2018-12-06T22:05:26.999Z,55.47
2018-12-06T22:07:53.630Z,55.42
2018-12-06T22:10:20.254Z,55.59
2018-12-06T22:12:46.835Z,55.29
2018-12-06T22:15:13.461Z,55.32
2018-12-06T22:17:40.048Z,54.42
2018-12-06T22:20:06.650Z,55.42
2018-12-06T22:22:33.261Z,54.60
2018-12-06T22:24:59.868Z,55.55
2018-12-06T22:27:26.496Z,55.44
2018-12-06T22:29:53.101Z,55.36
2018-12-06T22:32:19.733Z,54.75
2018-12-06T22:34:46.344Z,54.66
2018-12-06T22:37:12.943Z,55.01
2018-12-06T22:39:39.555Z,54.65
2018-12-06T22:42:06.174Z,55.26
2018-12-06T22:44:32.802Z,54.67
2018-12-06T22:46:59.396Z,55.41
2018-12-06T22:49:26.005Z,55.01
2018-12-06T22:51:52.629Z,55.37
2018-12-06T22:54:19.253Z,55.43
2018-12-06T22:56:45.895Z,55.15
2018-12-06T22:59:12.485Z,55.17
2018-12-06T23:01:40.279Z,55.03
2018-12-06T23:04:06.893Z,54.62
2018-12-06T23:06:33.481Z,55.19
2018-12-06T23:09:00.115Z,54.59
2018-12-06T23:11:26.753Z,55.23
2018-12-06T23:13:53.358Z,55.23
2018-12-06T23:16:20.011Z,54.58
2018-12-06T23:18:46.604Z,55.29
2018-12-06T23:21:13.220Z,55.31
2018-12-06T23:23:39.841Z,54.71
2018-12-06T23:26:06.470Z,54.61
2018-12-06T23:28:33.052Z,55.39
2018-12-06T23:30:59.677Z,54.68
2018-12-06T23:33:31.963Z,54.69
2018-12-06T23:35:54.976Z,54.53
2018-12-06T23:38:21.574Z,55.21
2018-12-06T23:40:48.190Z,54.61
2018-12-06T23:43:14.788Z,55.28
2018-12-06T23:45:41.445Z,55.02
2018-12-06T23:48:08.039Z,54.48
2018-12-06T23:50:34.765Z,55.31
2018-12-06T23:53:01.356Z,54.50
2018-12-06T23:55:27.954Z,54.65
2018-12-06T23:57:54.553Z,54.60
